createdAt,value
2023-03-18T00:00:32.668Z,6.51
2023-03-18T00:03:03.219Z,6.38
2023-03-18T00:05:34.574Z,6.42
2023-03-18T00:08:06.958Z,6.47
2023-03-18T00:10:37.024Z,6.25
2023-03-18T00:13:07.250Z,6.14
2023-03-18T00:15:37.838Z,6.08
2023-03-18T00:18:08.271Z,6.04
2023-03-18T00:20:39.020Z,6.08
2023-03-18T00:23:09.824Z,6.08
2023-03-18T00:25:40.088Z,6.09
2023-03-18T00:28:10.250Z,6.05
2023-03-18T00:30:42.796Z,5.96
2023-03-18T00:33:13.189Z,6.09
2023-03-18T00:35:45.475Z,6.11
2023-03-18T00:38:21.031Z,6.04
2023-03-18T00:40:53.767Z,5.91
2023-03-18T00:43:29.481Z,5.86
2023-03-18T00:46:00.923Z,5.78
2023-03-18T00:48:31.504Z,5.70
2023-03-18T00:51:01.568Z,5.65
2023-03-18T00:53:31.830Z,5.68
2023-03-18T00:56:02.006Z,5.67
2023-03-18T00:58:32.151Z,5.60
2023-03-18T01:01:02.937Z,5.66
2023-03-18T01:03:34.492Z,5.78
2023-03-18T01:06:05.655Z,5.67
2023-03-18T01:08:37.114Z,5.60
2023-03-18T01:11:07.991Z,5.49
2023-03-18T01:13:40.599Z,5.43
2023-03-18T01:16:11.081Z,5.38
2023-03-18T01:18:42.585Z,5.36
2023-03-18T01:21:14.482Z,5.41
2023-03-18T01:23:45.258Z,5.37
2023-03-18T01:26:16.832Z,5.33
2023-03-18T01:28:48.108Z,5.29
2023-03-18T01:31:19.156Z,5.27
2023-03-18T01:33:49.207Z,5.29
2023-03-18T01:36:19.327Z,5.25
2023-03-18T01:38:49.622Z,5.21
2023-03-18T01:41:19.804Z,5.22
2023-03-18T01:43:50.085Z,5.21
2023-03-18T01:46:44.902Z,5.18
2023-03-18T01:49:43.838Z,5.22
2023-03-18T01:52:31.148Z,5.21
2023-03-18T01:55:11.587Z,5.18
2023-03-18T01:57:45.527Z,5.14
2023-03-18T02:00:20.081Z,5.16
2023-03-18T02:02:54.535Z,5.20
2023-03-18T02:05:28.808Z,5.23
2023-03-18T02:07:58.994Z,5.38
2023-03-18T02:10:32.461Z,5.45
2023-03-18T02:13:10.809Z,5.47
2023-03-18T02:16:15.839Z,5.48
2023-03-18T02:18:59.394Z,5.49
2023-03-18T02:21:53.795Z,5.51
2023-03-18T02:25:13.184Z,5.76
2023-03-18T02:27:52.754Z,5.80
2023-03-18T02:30:36.476Z,5.64
2023-03-18T02:33:11.451Z,5.54
2023-03-18T02:35:49.518Z,5.48
2023-03-18T02:38:19.846Z,5.44
2023-03-18T02:40:50.130Z,5.54
2023-03-18T02:43:33.438Z,5.47
2023-03-18T02:46:26.358Z,5.54
2023-03-18T02:49:00.537Z,5.60
2023-03-18T02:51:31.206Z,5.53
2023-03-18T02:54:27.936Z,5.48
2023-03-18T02:56:58.956Z,5.43
2023-03-18T02:59:30.004Z,5.41
2023-03-18T03:02:00.791Z,5.39
2023-03-18T03:04:32.096Z,5.35
2023-03-18T03:07:02.335Z,5.37
2023-03-18T03:09:32.474Z,5.38
2023-03-18T03:12:03.134Z,5.44
2023-03-18T03:14:33.147Z,5.43
2023-03-18T03:17:04.319Z,5.43
2023-03-18T03:19:34.387Z,5.47
2023-03-18T03:22:05.377Z,5.46
2023-03-18T03:24:35.499Z,5.47
2023-03-18T03:27:06.113Z,5.43
2023-03-18T03:29:36.292Z,5.38
2023-03-18T03:32:06.970Z,5.33
2023-03-18T03:34:35.036Z,5.27
2023-03-18T03:37:03.233Z,5.25
2023-03-18T03:39:31.860Z,5.20
2023-03-18T03:42:00.117Z,5.17
2023-03-18T03:44:28.486Z,5.14
2023-03-18T03:46:56.913Z,5.14
2023-03-18T03:49:25.431Z,5.17
2023-03-18T03:51:53.794Z,5.19
2023-03-18T03:54:22.358Z,5.18
2023-03-18T03:56:50.530Z,5.24
2023-03-18T03:59:19.333Z,5.26
2023-03-18T04:01:47.451Z,5.31
2023-03-18T04:04:17.035Z,5.32
2023-03-18T04:06:44.211Z,5.52
2023-03-18T04:09:12.590Z,5.48
2023-03-18T04:11:41.286Z,5.68
2023-03-18T04:14:09.429Z,5.61
2023-03-18T04:16:38.268Z,5.58
2023-03-18T04:19:07.203Z,5.55
2023-03-18T04:21:35.041Z,5.46
2023-03-18T04:24:04.973Z,5.37
2023-03-18T04:26:35.016Z,5.42
2023-03-18T04:29:03.774Z,5.57
2023-03-18T04:31:32.261Z,5.60
2023-03-18T04:34:00.089Z,5.61
2023-03-18T04:36:28.519Z,6.06
2023-03-18T04:38:57.123Z,5.85
2023-03-18T04:41:25.327Z,5.69
2023-03-18T04:43:53.405Z,5.69
2023-03-18T04:46:21.908Z,5.79
2023-03-18T04:48:50.363Z,5.94
2023-03-18T04:51:18.876Z,5.89
2023-03-18T04:53:47.090Z,5.90
2023-03-18T04:56:15.494Z,5.77
2023-03-18T04:58:44.619Z,5.61
2023-03-18T05:01:13.245Z,5.48
2023-03-18T05:03:42.650Z,5.35
2023-03-18T05:06:26.977Z,5.36
2023-03-18T05:08:59.012Z,5.28
2023-03-18T05:11:29.052Z,5.31
2023-03-18T05:13:59.118Z,5.40
2023-03-18T05:16:30.210Z,5.27
2023-03-18T05:19:00.400Z,5.13
2023-03-18T05:21:30.627Z,5.05
2023-03-18T05:24:01.267Z,4.94
2023-03-18T05:26:31.292Z,4.83
2023-03-18T05:29:01.294Z,4.75
2023-03-18T05:31:31.954Z,4.75
2023-03-18T05:34:02.091Z,4.67
2023-03-18T05:36:33.112Z,4.57
2023-03-18T05:39:03.862Z,4.45
2023-03-18T05:41:31.584Z,4.33
2023-03-18T05:44:00.290Z,4.24
2023-03-18T05:46:29.125Z,4.15
2023-03-18T05:48:56.963Z,4.06
2023-03-18T05:51:26.601Z,4.01
2023-03-18T05:53:53.970Z,3.98
2023-03-18T05:56:22.608Z,3.98
2023-03-18T05:58:52.181Z,4.05
2023-03-18T06:01:20.214Z,4.08
2023-03-18T06:03:47.856Z,4.09
2023-03-18T06:06:16.518Z,4.30
2023-03-18T06:08:45.291Z,4.41
2023-03-18T06:11:13.797Z,4.53
2023-03-18T06:13:42.193Z,4.56
2023-03-18T06:16:09.994Z,4.62
2023-03-18T06:18:39.176Z,4.84
2023-03-18T06:21:10.406Z,4.95
2023-03-18T06:23:38.541Z,5.06
2023-03-18T06:26:08.772Z,5.10
2023-03-18T06:28:39.186Z,5.19
2023-03-18T06:31:10.842Z,5.37
2023-03-18T06:33:41.206Z,5.36
2023-03-18T06:36:10.748Z,5.32
2023-03-18T06:38:40.562Z,5.48
2023-03-18T06:41:09.048Z,5.47
2023-03-18T06:43:38.271Z,5.43
2023-03-18T06:46:06.032Z,5.44
2023-03-18T06:48:35.364Z,5.43
2023-03-18T06:51:03.951Z,5.43
2023-03-18T06:53:31.152Z,5.43
2023-03-18T06:56:00.265Z,5.45
2023-03-18T06:58:28.123Z,5.51
2023-03-18T07:00:56.524Z,5.63
2023-03-18T07:03:26.235Z,5.92
2023-03-18T07:05:54.473Z,6.05
2023-03-18T07:08:21.987Z,6.39
2023-03-18T07:10:55.268Z,6.29
2023-03-18T07:13:27.154Z,6.38
2023-03-18T07:15:57.171Z,6.51
2023-03-18T07:18:28.258Z,6.60
2023-03-18T07:20:58.772Z,6.69
2023-03-18T07:23:28.848Z,6.81
2023-03-18T07:25:58.891Z,6.93
2023-03-18T07:28:27.962Z,7.02
2023-03-18T07:30:57.984Z,7.07
2023-03-18T07:33:28.745Z,7.00
2023-03-18T07:35:57.838Z,7.28
2023-03-18T07:38:28.155Z,7.28
2023-03-18T07:40:58.049Z,7.36
2023-03-18T07:43:28.632Z,7.30
2023-03-18T07:45:58.812Z,7.59
2023-03-18T07:48:28.967Z,7.72
2023-03-18T07:50:59.570Z,7.91
2023-03-18T07:53:30.181Z,7.89
2023-03-18T07:56:00.815Z,8.21
2023-03-18T07:58:29.713Z,8.54
2023-03-18T08:01:00.111Z,8.70
2023-03-18T08:03:30.427Z,8.53
2023-03-18T08:06:00.556Z,8.68
2023-03-18T08:08:29.791Z,8.99
2023-03-18T08:11:00.568Z,9.20
2023-03-18T08:13:30.696Z,9.63
2023-03-18T08:16:00.519Z,9.76
2023-03-18T08:18:30.680Z,9.79
2023-03-18T08:21:01.062Z,9.97
2023-03-18T08:23:31.209Z,10.25
2023-03-18T08:26:00.949Z,10.47
2023-03-18T08:28:31.342Z,10.86
2023-03-18T08:31:01.386Z,10.60
2023-03-18T08:33:32.262Z,10.82
2023-03-18T08:36:02.124Z,11.33
2023-03-18T08:38:32.103Z,11.71
2023-03-18T08:41:02.220Z,12.02
2023-03-18T08:43:31.946Z,11.46
2023-03-18T08:46:02.145Z,11.45
2023-03-18T08:48:32.251Z,11.81
2023-03-18T08:51:09.347Z,12.34
2023-03-18T08:53:38.806Z,12.50
2023-03-18T08:56:07.870Z,12.43
2023-03-18T08:58:36.337Z,12.35
2023-03-18T09:01:05.436Z,11.71
2023-03-18T09:03:36.245Z,11.68
2023-03-18T09:06:07.081Z,11.38
2023-03-18T09:08:34.733Z,11.37
2023-03-18T09:11:03.458Z,11.76
2023-03-18T09:13:31.587Z,11.86
2023-03-18T09:16:00.584Z,12.22
2023-03-18T09:18:29.417Z,12.58
2023-03-18T09:20:57.446Z,12.52
2023-03-18T09:23:26.412Z,12.18
2023-03-18T09:25:54.913Z,12.06
2023-03-18T09:28:22.230Z,11.96
2023-03-18T09:30:52.727Z,11.75
2023-03-18T09:33:23.642Z,12.16
2023-03-18T09:35:54.008Z,12.73
2023-03-18T09:38:24.248Z,13.16
2023-03-18T09:41:10.724Z,13.12
2023-03-18T09:44:09.570Z,13.78
2023-03-18T09:47:19.786Z,14.42
2023-03-18T09:50:25.907Z,14.14
2023-03-18T09:53:23.589Z,14.01
2023-03-18T09:56:02.902Z,14.19
2023-03-18T09:59:07.764Z,14.64
2023-03-18T10:01:42.947Z,14.69
2023-03-18T10:04:41.108Z,15.52
2023-03-18T10:07:26.454Z,16.52
2023-03-18T10:10:45.937Z,16.69
2023-03-18T10:13:33.599Z,16.12
2023-03-18T10:16:18.201Z,15.91
2023-03-18T10:18:47.852Z,16.01
2023-03-18T10:22:25.634Z,16.10
2023-03-18T10:25:25.906Z,16.53
2023-03-18T10:29:01.449Z,16.31
2023-03-18T10:31:58.938Z,15.94
2023-03-18T10:35:41.739Z,16.31
2023-03-18T10:38:36.384Z,15.67
2023-03-18T10:41:32.692Z,15.96
2023-03-18T10:44:36.827Z,15.99
2023-03-18T10:47:41.609Z,15.80
2023-03-18T10:50:39.001Z,16.21
2023-03-18T10:53:33.476Z,16.61
2023-03-18T10:56:14.684Z,16.65
2023-03-18T10:58:46.552Z,17.23
2023-03-18T11:01:23.387Z,17.14
2023-03-18T11:04:03.510Z,17.22
2023-03-18T11:06:50.089Z,17.26
2023-03-18T11:09:29.874Z,17.62
2023-03-18T11:12:30.800Z,17.74
2023-03-18T11:15:00.854Z,17.20
2023-03-18T11:17:40.710Z,17.16
2023-03-18T11:20:37.407Z,17.08
2023-03-18T11:23:18.735Z,16.60
2023-03-18T11:25:52.874Z,16.66
2023-03-18T11:28:30.113Z,16.22
2023-03-18T11:31:06.654Z,16.37
2023-03-18T11:33:37.387Z,16.38
2023-03-18T11:36:18.491Z,15.89
2023-03-18T11:39:06.975Z,15.87
2023-03-18T11:41:40.245Z,15.66
2023-03-18T11:44:27.294Z,15.94
2023-03-18T11:47:14.888Z,15.57
2023-03-18T11:49:45.996Z,16.16
2023-03-18T11:52:47.092Z,16.68
2023-03-18T11:55:50.460Z,16.98
2023-03-18T11:58:43.807Z,17.30
2023-03-18T12:01:34.964Z,17.21
2023-03-18T12:04:42.080Z,17.22
2023-03-18T12:08:00.210Z,16.97
2023-03-18T12:11:19.284Z,17.73
2023-03-18T12:14:43.615Z,17.02
2023-03-18T12:17:36.026Z,17.00
2023-03-18T12:20:53.277Z,17.15
2023-03-18T12:24:09.133Z,17.23
2023-03-18T12:27:17.696Z,17.17
2023-03-18T12:30:38.562Z,17.07
2023-03-18T12:33:49.601Z,17.31
2023-03-18T12:36:44.511Z,17.70
2023-03-18T12:39:34.169Z,17.73
2023-03-18T12:42:25.300Z,17.69
2023-03-18T12:45:05.507Z,18.15
2023-03-18T12:48:05.303Z,18.30
2023-03-18T12:51:13.963Z,18.16
2023-03-18T12:53:58.565Z,18.06
2023-03-18T12:56:40.721Z,18.56
2023-03-18T12:59:43.960Z,18.81
2023-03-18T13:02:57.640Z,18.93
2023-03-18T13:06:05.232Z,18.92
2023-03-18T13:09:13.099Z,18.78
2023-03-18T13:12:13.332Z,18.88
2023-03-18T13:15:24.687Z,19.18
2023-03-18T13:18:14.801Z,19.51
2023-03-18T13:20:49.399Z,19.41
2023-03-18T13:24:22.905Z,19.22
2023-03-18T13:27:22.070Z,19.37
2023-03-18T13:31:25.686Z,19.30
2023-03-18T13:34:04.454Z,19.65
2023-03-18T13:37:04.799Z,20.01
2023-03-18T13:40:42.869Z,19.90
2023-03-18T13:43:22.901Z,19.90
2023-03-18T13:45:58.447Z,19.67
2023-03-18T13:48:35.644Z,19.39
2023-03-18T13:51:40.053Z,19.89
2023-03-18T13:54:19.693Z,20.02
2023-03-18T13:56:55.968Z,20.53
2023-03-18T13:59:35.178Z,20.68
2023-03-18T14:02:41.533Z,20.70
2023-03-18T14:05:40.480Z,21.05
2023-03-18T14:08:42.819Z,21.12
2023-03-18T14:11:19.802Z,20.93
2023-03-18T14:13:47.584Z,21.23
2023-03-18T14:16:28.322Z,21.41
2023-03-18T14:19:22.159Z,21.03
2023-03-18T14:22:08.766Z,20.61
2023-03-18T14:24:39.501Z,20.60
2023-03-18T14:27:20.296Z,20.69
2023-03-18T14:29:49.443Z,20.53
2023-03-18T14:32:33.240Z,20.86
2023-03-18T14:35:17.944Z,20.97
2023-03-18T14:38:15.325Z,21.07
2023-03-18T14:40:54.216Z,21.41
2023-03-18T14:43:40.493Z,21.39
2023-03-18T14:46:41.857Z,20.46
2023-03-18T14:49:48.374Z,20.56
2023-03-18T14:52:41.128Z,20.66
2023-03-18T14:55:35.757Z,20.77
2023-03-18T14:58:06.313Z,20.10
2023-03-18T15:00:37.635Z,19.55
2023-03-18T15:03:22.726Z,18.90
2023-03-18T15:06:03.436Z,18.35
2023-03-18T15:08:47.734Z,18.67
2023-03-18T15:11:23.895Z,18.87
2023-03-18T15:14:00.021Z,18.39
2023-03-18T15:16:36.616Z,18.06
2023-03-18T15:19:11.513Z,18.27
2023-03-18T15:21:41.821Z,19.27
2023-03-18T15:24:26.713Z,20.68
2023-03-18T15:27:18.008Z,21.64
2023-03-18T15:30:02.278Z,21.83
2023-03-18T15:32:50.138Z,21.23
2023-03-18T15:35:28.758Z,21.42
2023-03-18T15:38:16.517Z,20.64
2023-03-18T15:41:06.667Z,19.56
2023-03-18T15:43:48.533Z,18.83
2023-03-18T15:46:30.717Z,18.15
2023-03-18T15:49:05.614Z,17.75
2023-03-18T15:51:48.627Z,17.47
2023-03-18T15:54:28.498Z,17.24
2023-03-18T15:57:10.966Z,17.04
2023-03-18T15:59:50.225Z,17.05
2023-03-18T16:02:19.703Z,17.28
2023-03-18T16:04:49.080Z,17.27
2023-03-18T16:07:23.239Z,17.00
2023-03-18T16:09:54.730Z,16.89
2023-03-18T16:12:30.978Z,16.68
2023-03-18T16:15:06.326Z,16.62
2023-03-18T16:17:37.125Z,16.47
2023-03-18T16:20:30.173Z,16.49
2023-03-18T16:23:00.281Z,16.25
2023-03-18T16:25:30.655Z,16.05
2023-03-18T16:28:01.427Z,15.88
2023-03-18T16:30:46.397Z,15.68
2023-03-18T16:33:18.999Z,15.57
2023-03-18T16:36:02.467Z,15.40
2023-03-18T16:38:36.595Z,15.17
2023-03-18T16:41:05.179Z,14.96
2023-03-18T16:43:32.754Z,14.76
2023-03-18T16:46:06.401Z,14.55
2023-03-18T16:48:36.866Z,14.42
2023-03-18T16:51:07.858Z,14.31
2023-03-18T16:53:38.109Z,14.21
2023-03-18T16:56:21.987Z,14.19
2023-03-18T16:58:52.316Z,14.13
2023-03-18T17:01:21.612Z,14.02
2023-03-18T17:03:49.768Z,13.88
2023-03-18T17:06:19.922Z,13.75
2023-03-18T17:08:49.791Z,13.59
2023-03-18T17:11:19.803Z,13.49
2023-03-18T17:13:50.221Z,13.37
2023-03-18T17:16:22.364Z,13.24
2023-03-18T17:18:50.176Z,13.19
2023-03-18T17:21:18.678Z,13.07
2023-03-18T17:23:47.865Z,12.99
2023-03-18T17:26:15.665Z,12.96
2023-03-18T17:28:50.060Z,12.84
2023-03-18T17:31:20.224Z,12.77
2023-03-18T17:33:50.530Z,12.63
2023-03-18T17:36:20.752Z,12.50
2023-03-18T17:38:56.604Z,12.35
2023-03-18T17:41:25.929Z,12.26
2023-03-18T17:43:55.188Z,12.25
2023-03-18T17:46:24.183Z,12.16
2023-03-18T17:48:52.066Z,12.05
2023-03-18T17:51:24.758Z,11.93
2023-03-18T17:54:00.323Z,11.78
2023-03-18T17:56:30.537Z,11.59
2023-03-18T17:58:59.314Z,11.41
2023-03-18T18:01:30.274Z,11.24
2023-03-18T18:04:01.766Z,11.05
2023-03-18T18:06:32.192Z,10.91
2023-03-18T18:09:02.631Z,10.80
2023-03-18T18:11:38.656Z,10.69
2023-03-18T18:14:26.213Z,10.56
2023-03-18T18:17:40.188Z,10.42
2023-03-18T18:20:18.335Z,10.28
2023-03-18T18:22:57.093Z,10.16
2023-03-18T18:25:30.327Z,10.07
2023-03-18T18:28:00.828Z,10.01
2023-03-18T18:30:32.047Z,9.96
2023-03-18T18:33:02.946Z,9.91
2023-03-18T18:35:33.290Z,9.85
2023-03-18T18:38:01.443Z,9.82
2023-03-18T18:40:31.526Z,9.81
2023-03-18T18:42:59.970Z,9.79
2023-03-18T18:45:29.352Z,9.81
2023-03-18T18:47:57.521Z,9.81
2023-03-18T18:50:39.923Z,9.76
2023-03-18T18:53:29.594Z,9.69
2023-03-18T18:56:12.811Z,9.60
2023-03-18T18:58:43.054Z,9.50
2023-03-18T19:01:15.145Z,9.43
2023-03-18T19:03:46.993Z,9.37
2023-03-18T19:06:32.217Z,9.35
2023-03-18T19:09:15.811Z,9.33
2023-03-18T19:11:47.608Z,9.33
2023-03-18T19:14:29.509Z,9.32
2023-03-18T19:17:00.182Z,9.44
2023-03-18T19:19:35.516Z,9.49
2023-03-18T19:22:07.432Z,9.49
2023-03-18T19:24:39.599Z,9.51
2023-03-18T19:27:28.127Z,9.50
2023-03-18T19:30:05.926Z,9.48
2023-03-18T19:32:36.060Z,9.48
2023-03-18T19:35:06.884Z,9.48
2023-03-18T19:37:44.502Z,9.51
2023-03-18T19:40:34.185Z,9.61
2023-03-18T19:43:21.729Z,9.79
2023-03-18T19:45:52.219Z,10.06
2023-03-18T19:48:28.578Z,10.32
2023-03-18T19:50:58.612Z,10.49
2023-03-18T19:53:29.338Z,10.59
2023-03-18T19:55:59.577Z,10.63
2023-03-18T19:58:29.942Z,10.68
2023-03-18T20:01:00.416Z,10.75
2023-03-18T20:03:29.470Z,10.86
2023-03-18T20:05:57.967Z,10.98
2023-03-18T20:08:26.275Z,11.16
2023-03-18T20:10:54.877Z,11.19
2023-03-18T20:13:24.349Z,11.16
2023-03-18T20:15:51.792Z,11.15
2023-03-18T20:18:20.510Z,11.32
2023-03-18T20:20:51.817Z,11.34
2023-03-18T20:23:28.013Z,11.16
2023-03-18T20:25:58.453Z,11.05
2023-03-18T20:28:29.968Z,11.10
2023-03-18T20:30:59.331Z,11.08
2023-03-18T20:33:27.198Z,10.99
2023-03-18T20:35:57.325Z,10.98
2023-03-18T20:38:36.718Z,10.99
2023-03-18T20:41:17.661Z,11.07
2023-03-18T20:43:50.166Z,10.98
2023-03-18T20:46:23.813Z,10.95
2023-03-18T20:48:56.503Z,10.85
2023-03-18T20:51:38.011Z,10.89
2023-03-18T20:54:23.773Z,10.94
2023-03-18T20:56:53.868Z,10.74
2023-03-18T20:59:24.192Z,10.61
2023-03-18T21:01:54.266Z,10.50
2023-03-18T21:04:24.313Z,10.51
2023-03-18T21:06:54.389Z,10.36
2023-03-18T21:09:24.449Z,10.22
2023-03-18T21:11:54.464Z,10.12
2023-03-18T21:14:24.571Z,10.02
2023-03-18T21:16:53.268Z,9.96
2023-03-18T21:19:22.210Z,9.90
2023-03-18T21:21:51.117Z,9.81
2023-03-18T21:24:28.156Z,9.72
2023-03-18T21:27:04.742Z,9.65
2023-03-18T21:29:35.838Z,9.51
2023-03-18T21:32:06.507Z,9.40
2023-03-18T21:34:36.389Z,9.27
2023-03-18T21:37:20.537Z,9.13
2023-03-18T21:39:51.555Z,8.98
2023-03-18T21:42:26.188Z,8.84
2023-03-18T21:44:57.457Z,8.72
2023-03-18T21:47:27.499Z,8.59
2023-03-18T21:49:57.604Z,8.46
2023-03-18T21:52:37.662Z,8.32
2023-03-18T21:55:06.951Z,8.19
2023-03-18T21:57:37.213Z,8.08
2023-03-18T22:00:16.174Z,7.95
2023-03-18T22:02:47.065Z,7.87
2023-03-18T22:05:24.702Z,7.74
2023-03-18T22:07:52.499Z,7.66
2023-03-18T22:10:23.971Z,7.61
2023-03-18T22:12:53.886Z,7.52
2023-03-18T22:15:23.730Z,7.43
2023-03-18T22:17:53.710Z,7.34
2023-03-18T22:20:23.881Z,7.26
2023-03-18T22:22:53.637Z,7.17
2023-03-18T22:25:39.085Z,7.09
2023-03-18T22:28:06.743Z,7.03
2023-03-18T22:30:36.460Z,6.96
2023-03-18T22:33:07.120Z,6.89
2023-03-18T22:35:37.594Z,6.84
2023-03-18T22:38:17.037Z,6.80
2023-03-18T22:40:49.764Z,6.76
2023-03-18T22:43:36.252Z,6.69
2023-03-18T22:46:11.619Z,6.65
2023-03-18T22:48:40.627Z,6.61
2023-03-18T22:51:28.226Z,6.53
2023-03-18T22:53:58.338Z,6.47
2023-03-18T22:56:25.603Z,6.42
2023-03-18T22:58:56.130Z,6.36
2023-03-18T23:01:31.815Z,6.28
2023-03-18T23:04:01.947Z,6.24
2023-03-18T23:06:31.870Z,6.19
2023-03-18T23:09:02.051Z,6.14
2023-03-18T23:11:31.698Z,6.10
2023-03-18T23:14:02.518Z,6.06
2023-03-18T23:16:32.270Z,6.02
2023-03-18T23:19:02.147Z,5.98
2023-03-18T23:21:31.966Z,5.96
2023-03-18T23:24:01.998Z,5.91
2023-03-18T23:26:31.993Z,5.86
2023-03-18T23:29:02.964Z,5.82
2023-03-18T23:31:33.203Z,5.80
2023-03-18T23:34:03.084Z,5.77
2023-03-18T23:36:32.798Z,5.75
2023-03-18T23:39:01.347Z,5.71
2023-03-18T23:41:29.592Z,5.70
2023-03-18T23:43:57.971Z,5.69
2023-03-18T23:46:26.537Z,5.68
2023-03-18T23:48:54.838Z,5.66
2023-03-18T23:51:23.276Z,5.70
2023-03-18T23:53:51.845Z,5.75
2023-03-18T23:56:20.154Z,5.74
2023-03-18T23:58:48.908Z,5.70
